Impacts METAR Board
IDs:

KRWV - Caldwell Muni, TX, US

Updated at: 0000 UTC 30 May 2020
Potential Impact None Slight Moderate High
Time 29/12Z 29/13Z 29/14Z 29/15Z 29/16Z 29/17Z 29/18Z 29/19Z 29/20Z 29/21Z 29/22Z 29/23Z 30/00Z
Temp67 71 74 78 78 80 82 83 85 85 86 85 83
Dewpt 68 68 68 68 69 67 65 63 63 59 58 61
Altim30.07 30.10 30.10 30.10 30.10 30.10 30.09 30.10 30.10 30.08 30.07 30.06 30.06
VIS10 10 10 10 10 10 10 10 10 10 10 10 10
CIG-- -- -- -- -- -- -- -- -- -- -- -- --
CoverCLRCLRCLRCLRSCTSCTSCTCLRSCTCLRCLRCLRCLR
FltCatVFRVFRVFRVFRVFRVFRVFRVFRVFRVFRVFRVFRVFR
WX--------------------------
WDir3501010303010303602030202010
WSpd4 4 9 6 9 6 10 9 9 8 9 9 5
WGst-- -- -- 14 -- -- 14 -- 14 -- 16 14 --
Raw hourly METARs
KRWV 291155Z AUTO 35004KT 10SM CLR 20/ A3007 RMK AO2 T0196//// 10224 20193
KRWV 291255Z AUTO 01004KT 10SM CLR 22/20 A3010 RMK AO2 T02180202
KRWV 291355Z AUTO 01009KT 10SM CLR 24/20 A3010 RMK AO2 T02360202
KRWV 291455Z AUTO 03006G14KT 10SM CLR 25/20 A3010 RMK AO2 T02530201
KRWV 291555Z AUTO 03009KT 10SM SCT021 25/20 A3010 RMK AO2 T02530202
KRWV 291655Z AUTO 01006KT 10SM SCT028 SCT034 27/20 A3010 RMK AO2 T02660204
KRWV 291755Z AUTO 03010G14KT 10SM SCT038 28/20 A3009 RMK AO2 T02750196 10278 20197
KRWV 291855Z AUTO 36009KT 340V050 10SM CLR 29/18 A3010 RMK AO2 T02860184
KRWV 291955Z AUTO 02009G14KT 340V050 10SM SCT050 29/17 A3010 RMK AO2 T02930174
KRWV 292055Z AUTO 03008KT 360V070 10SM CLR 29/17 A3008 RMK AO2 T02930172
KRWV 292155Z AUTO 02009G16KT 340V060 10SM CLR 30/15 A3007 RMK AO2 T02980148
KRWV 292255Z AUTO 02009G14KT 10SM CLR 29/14 A3006 RMK AO2 T02920145
KRWV 292355Z AUTO 01005KT 10SM CLR 28/16 A3006 RMK AO2 T02840159 10300 20274 403000193